createdAt,value
2022-10-27T00:00:39.383Z,10.35
2022-10-27T00:03:06.845Z,10.04
2022-10-27T00:05:34.365Z,9.80
2022-10-27T00:08:01.436Z,9.59
2022-10-27T00:10:28.466Z,10.06
2022-10-27T00:12:58.667Z,10.60
2022-10-27T00:15:26.809Z,10.61
2022-10-27T00:17:53.710Z,10.41
2022-10-27T00:20:20.737Z,10.15
2022-10-27T00:22:50.890Z,9.87
2022-10-27T00:25:19.074Z,9.61
2022-10-27T00:27:46.083Z,10.03
2022-10-27T00:30:13.217Z,10.54
2022-10-27T00:32:40.545Z,10.57
2022-10-27T00:35:07.865Z,10.37
2022-10-27T00:37:34.856Z,10.07
2022-10-27T00:40:01.886Z,9.75
2022-10-27T00:42:29.313Z,9.45
2022-10-27T00:44:56.334Z,9.79
2022-10-27T00:47:28.007Z,10.28
2022-10-27T00:50:01.671Z,10.29
2022-10-27T00:52:33.345Z,10.06
2022-10-27T00:55:12.903Z,9.81
2022-10-27T00:57:40.655Z,9.52
2022-10-27T01:00:09.101Z,9.19
2022-10-27T01:02:36.858Z,9.58
2022-10-27T01:05:11.575Z,10.15
2022-10-27T01:07:39.650Z,10.22
2022-10-27T01:10:06.946Z,10.04
2022-10-27T01:12:34.505Z,9.81
2022-10-27T01:15:01.446Z,9.59
2022-10-27T01:17:31.394Z,9.36
2022-10-27T01:20:24.734Z,9.78
2022-10-27T01:23:03.101Z,10.35
2022-10-27T01:25:52.910Z,10.36
2022-10-27T01:28:31.991Z,10.10
2022-10-27T01:31:14.044Z,9.77
2022-10-27T01:33:52.050Z,9.41
2022-10-27T01:36:25.039Z,9.08
2022-10-27T01:38:59.285Z,9.61
2022-10-27T01:44:17.713Z,10.24
2022-10-27T01:46:44.658Z,10.03
2022-10-27T01:49:12.460Z,9.78
2022-10-27T01:51:40.644Z,9.54
2022-10-27T01:54:07.751Z,9.31
2022-10-27T01:57:07.261Z,9.79
2022-10-27T01:59:58.845Z,10.43
2022-10-27T02:02:48.520Z,10.41
2022-10-27T02:05:32.300Z,10.17
2022-10-27T02:08:11.785Z,9.93
2022-10-27T02:10:46.805Z,9.67
2022-10-27T02:13:14.069Z,9.41
2022-10-27T02:15:44.027Z,9.94
2022-10-27T02:18:33.011Z,10.56
2022-10-27T02:23:28.525Z,10.26
2022-10-27T02:26:13.918Z,9.98
2022-10-27T02:29:06.981Z,9.66
2022-10-27T02:31:36.121Z,9.34
2022-10-27T02:34:03.477Z,9.93
2022-10-27T02:36:31.113Z,10.51
2022-10-27T02:38:58.050Z,10.56
2022-10-27T02:41:25.547Z,10.35
2022-10-27T02:43:55.581Z,10.04
2022-10-27T02:46:22.788Z,9.75
2022-10-27T02:48:49.706Z,9.47
2022-10-27T02:51:16.722Z,9.21
2022-10-27T02:53:44.338Z,9.65
2022-10-27T02:56:12.560Z,10.22
2022-10-27T02:58:40.815Z,10.25
2022-10-27T03:01:07.787Z,10.02
2022-10-27T03:03:34.927Z,9.75
2022-10-27T03:06:02.429Z,9.50
2022-10-27T03:08:29.944Z,9.23
2022-10-27T03:10:59.056Z,9.63
2022-10-27T03:13:26.098Z,10.14
2022-10-27T03:15:54.176Z,10.14
2022-10-27T03:18:21.699Z,9.87
2022-10-27T03:20:49.807Z,9.52
2022-10-27T03:23:17.002Z,9.19
2022-10-27T03:25:47.630Z,8.86
2022-10-27T03:28:16.347Z,9.25
2022-10-27T03:30:48.654Z,9.76
2022-10-27T03:33:15.948Z,9.74
2022-10-27T03:35:44.005Z,9.48
2022-10-27T03:38:13.110Z,9.21
2022-10-27T03:40:40.201Z,8.93
2022-10-27T03:43:07.594Z,8.67
2022-10-27T03:45:35.834Z,9.09
2022-10-27T03:48:07.669Z,9.60
2022-10-27T03:50:34.896Z,9.59
2022-10-27T03:53:03.645Z,9.35
2022-10-27T03:55:32.214Z,9.04
2022-10-27T03:57:59.754Z,8.75
2022-10-27T04:00:28.809Z,8.47
2022-10-27T04:02:57.090Z,8.90
2022-10-27T04:05:24.224Z,9.37
2022-10-27T04:07:52.925Z,9.37
2022-10-27T04:10:19.918Z,9.12
2022-10-27T04:12:59.394Z,8.83
2022-10-27T04:15:27.256Z,8.53
2022-10-27T04:17:55.270Z,8.27
2022-10-27T04:20:23.049Z,8.76
2022-10-27T04:22:50.563Z,9.33
2022-10-27T04:25:18.043Z,9.41
2022-10-27T04:27:45.693Z,9.22
2022-10-27T04:30:12.804Z,8.97
2022-10-27T04:32:41.162Z,8.71
2022-10-27T04:35:08.799Z,8.45
2022-10-27T04:37:35.819Z,8.85
2022-10-27T04:40:02.974Z,9.38
2022-10-27T04:42:30.525Z,9.41
2022-10-27T04:44:57.431Z,9.19
2022-10-27T04:47:24.463Z,8.89
2022-10-27T04:49:51.433Z,8.64
2022-10-27T04:52:18.453Z,8.38
2022-10-27T04:54:45.793Z,8.82
2022-10-27T04:57:13.152Z,9.40
2022-10-27T04:59:40.661Z,9.46
2022-10-27T05:02:07.850Z,9.28
2022-10-27T05:04:35.906Z,9.03
2022-10-27T05:07:03.103Z,8.77
2022-10-27T05:09:30.008Z,8.51
2022-10-27T05:11:57.270Z,8.97
2022-10-27T05:14:24.330Z,9.51
2022-10-27T05:16:51.619Z,9.54
2022-10-27T05:19:18.546Z,9.31
2022-10-27T05:21:45.633Z,9.03
2022-10-27T05:24:12.643Z,8.75
2022-10-27T05:26:39.667Z,8.49
2022-10-27T05:29:06.820Z,8.95
2022-10-27T05:31:33.868Z,9.53
2022-10-27T05:34:01.177Z,9.62
2022-10-27T05:36:28.487Z,9.46
2022-10-27T05:38:56.440Z,9.18
2022-10-27T05:41:23.465Z,8.90
2022-10-27T05:43:52.578Z,8.64
2022-10-27T05:46:19.578Z,9.06
2022-10-27T05:48:46.585Z,9.60
2022-10-27T05:51:15.707Z,9.65
2022-10-27T05:53:44.936Z,9.47
2022-10-27T05:56:11.845Z,9.24
2022-10-27T05:58:39.105Z,9.03
2022-10-27T06:01:06.161Z,8.82
2022-10-27T06:03:33.446Z,9.28
2022-10-27T06:06:03.439Z,9.85
2022-10-27T06:08:30.623Z,9.90
2022-10-27T06:10:57.898Z,9.71
2022-10-27T06:13:25.942Z,9.47
2022-10-27T06:15:53.429Z,9.26
2022-10-27T06:18:23.561Z,9.11
2022-10-27T06:20:50.670Z,9.60
2022-10-27T06:23:17.783Z,10.23
2022-10-27T06:25:44.956Z,10.34
2022-10-27T06:28:11.874Z,10.23
2022-10-27T06:30:39.408Z,10.02
2022-10-27T06:33:08.059Z,9.84
2022-10-27T06:35:35.147Z,9.73
2022-10-27T06:38:02.088Z,10.30
2022-10-27T06:40:29.753Z,10.91
2022-10-27T06:43:12.186Z,11.05
2022-10-27T06:45:39.696Z,10.93
2022-10-27T06:48:08.289Z,10.74
2022-10-27T06:50:55.084Z,10.55
2022-10-27T06:53:22.057Z,10.37
2022-10-27T06:55:49.011Z,10.18
2022-10-27T06:58:15.931Z,10.70
2022-10-27T07:00:43.175Z,11.39
2022-10-27T07:05:38.373Z,11.49
2022-10-27T07:08:05.705Z,11.39
2022-10-27T07:10:32.599Z,11.28
2022-10-27T07:13:00.993Z,11.13
2022-10-27T07:15:36.645Z,10.90
2022-10-27T07:18:06.925Z,11.45
2022-10-27T07:20:35.006Z,12.03
2022-10-27T07:23:02.579Z,12.07
2022-10-27T07:25:30.651Z,11.80
2022-10-27T07:27:58.373Z,11.48
2022-10-27T07:30:30.470Z,11.26
2022-10-27T07:32:57.787Z,11.18
2022-10-27T07:35:24.830Z,11.29
2022-10-27T07:37:52.464Z,11.99
2022-10-27T07:40:21.621Z,12.62
2022-10-27T07:42:54.535Z,12.75
2022-10-27T07:45:22.671Z,12.68
2022-10-27T07:47:51.267Z,12.55
2022-10-27T07:50:19.733Z,12.48
2022-10-27T07:52:48.436Z,12.39
2022-10-27T07:55:15.976Z,12.31
2022-10-27T07:57:43.555Z,12.39
2022-10-27T08:00:12.762Z,13.13
2022-10-27T08:02:40.015Z,13.80
2022-10-27T08:05:07.910Z,13.89
2022-10-27T08:07:35.423Z,13.77
2022-10-27T08:10:05.071Z,13.56
2022-10-27T08:12:32.084Z,13.36
2022-10-27T08:14:59.574Z,13.21
2022-10-27T08:17:28.921Z,13.04
2022-10-27T08:19:56.232Z,12.87
2022-10-27T08:22:23.947Z,13.53
2022-10-27T08:24:51.034Z,14.42
2022-10-27T08:27:17.980Z,14.92
2022-10-27T08:29:45.112Z,15.16
2022-10-27T08:32:12.950Z,15.22
2022-10-27T08:34:39.872Z,15.24
2022-10-27T08:37:06.851Z,15.37
2022-10-27T08:39:35.580Z,15.49
2022-10-27T08:42:45.020Z,15.81
2022-10-27T08:45:18.675Z,16.37
2022-10-27T08:47:45.824Z,16.80
2022-10-27T08:50:21.785Z,17.06
2022-10-27T08:52:57.132Z,17.39
2022-10-27T08:55:29.936Z,17.86
2022-10-27T08:58:23.266Z,18.33
2022-10-27T09:00:53.999Z,18.77
2022-10-27T09:03:31.587Z,19.10
2022-10-27T09:06:09.352Z,19.43
2022-10-27T09:08:49.998Z,19.74
2022-10-27T09:11:45.986Z,20.10
2022-10-27T09:14:45.570Z,20.52
2022-10-27T09:17:25.590Z,21.04
2022-10-27T09:20:05.840Z,21.55
2022-10-27T09:22:34.245Z,21.95
2022-10-27T09:25:03.736Z,22.22
2022-10-27T09:27:30.967Z,22.43
2022-10-27T09:30:03.525Z,22.69
2022-10-27T09:32:33.168Z,23.03
2022-10-27T09:35:02.236Z,23.37
2022-10-27T09:37:31.320Z,23.81
2022-10-27T09:39:58.319Z,24.18
2022-10-27T09:42:27.117Z,24.39
2022-10-27T09:45:01.042Z,24.49
2022-10-27T09:47:38.437Z,24.31
2022-10-27T09:50:08.885Z,24.05
2022-10-27T09:52:39.954Z,24.05
2022-10-27T09:55:07.480Z,24.50
2022-10-27T09:57:35.545Z,25.00
2022-10-27T10:00:08.611Z,25.41
2022-10-27T10:02:45.661Z,25.87
2022-10-27T10:05:25.559Z,26.28
2022-10-27T10:07:55.337Z,26.71
2022-10-27T10:10:28.591Z,27.30
2022-10-27T10:13:10.745Z,27.88
2022-10-27T10:15:45.829Z,28.42
2022-10-27T10:18:23.097Z,28.81
2022-10-27T10:20:56.546Z,29.19
2022-10-27T10:23:24.905Z,29.44
2022-10-27T10:25:53.015Z,29.61
2022-10-27T10:28:43.406Z,29.16
2022-10-27T10:31:13.185Z,28.34
2022-10-27T10:33:45.170Z,27.71
2022-10-27T10:36:35.582Z,27.14
2022-10-27T10:39:02.936Z,26.64
2022-10-27T10:41:31.845Z,26.25
2022-10-27T10:44:14.922Z,26.20
2022-10-27T10:46:53.367Z,26.14
2022-10-27T10:49:30.937Z,25.82
2022-10-27T10:52:02.674Z,25.76
2022-10-27T10:54:35.038Z,26.24
2022-10-27T10:57:02.557Z,26.94
2022-10-27T10:59:33.704Z,27.49
2022-10-27T11:02:04.511Z,27.91
2022-10-27T11:04:40.994Z,28.30
2022-10-27T11:07:31.864Z,28.69
2022-10-27T11:10:12.794Z,29.02
2022-10-27T11:12:56.336Z,29.18
2022-10-27T11:15:35.996Z,29.08
2022-10-27T11:18:24.787Z,29.05
2022-10-27T11:20:55.189Z,29.08
2022-10-27T11:23:28.419Z,29.07
2022-10-27T11:25:58.795Z,29.05
2022-10-27T11:28:28.121Z,29.05
2022-10-27T11:31:06.155Z,29.08
2022-10-27T11:33:52.385Z,29.02
2022-10-27T11:36:21.780Z,29.00
2022-10-27T11:39:08.397Z,29.01
2022-10-27T11:41:44.216Z,28.98
2022-10-27T11:44:43.974Z,28.89
2022-10-27T11:47:11.765Z,28.78
2022-10-27T11:49:43.942Z,28.70
2022-10-27T11:52:25.678Z,28.64
2022-10-27T11:54:53.004Z,28.67
2022-10-27T11:57:41.686Z,28.77
2022-10-27T12:00:20.773Z,28.76
2022-10-27T12:03:06.180Z,28.80
2022-10-27T12:05:58.128Z,28.72
2022-10-27T12:08:40.861Z,28.52
2022-10-27T12:11:23.407Z,28.34
2022-10-27T12:14:09.547Z,28.17
2022-10-27T12:16:55.893Z,28.14
2022-10-27T12:19:28.170Z,28.06
2022-10-27T12:22:01.543Z,27.84
2022-10-27T12:24:40.146Z,27.50
2022-10-27T12:27:10.191Z,27.33
2022-10-27T12:29:39.721Z,27.18
2022-10-27T12:32:11.406Z,27.07
2022-10-27T12:34:41.404Z,26.95
2022-10-27T12:37:22.554Z,26.87
2022-10-27T12:39:53.573Z,26.83
2022-10-27T12:42:42.586Z,26.79
2022-10-27T12:45:34.176Z,26.78
2022-10-27T12:48:10.188Z,26.78
2022-10-27T12:50:58.879Z,26.66
2022-10-27T12:53:40.371Z,26.36
2022-10-27T12:56:23.378Z,26.07
2022-10-27T12:58:52.588Z,25.84
2022-10-27T13:01:44.855Z,25.57
2022-10-27T13:04:44.086Z,25.26
2022-10-27T13:07:32.356Z,25.05
2022-10-27T13:10:30.203Z,24.93
2022-10-27T13:13:03.213Z,24.74
2022-10-27T13:15:38.621Z,24.54
2022-10-27T13:18:15.636Z,24.30
2022-10-27T13:21:16.141Z,24.06
2022-10-27T13:24:03.450Z,23.79
2022-10-27T13:26:34.848Z,23.53
2022-10-27T13:29:14.224Z,23.32
2022-10-27T13:31:41.296Z,23.14
2022-10-27T13:34:08.367Z,22.97
2022-10-27T13:36:37.420Z,22.82
2022-10-27T13:39:13.496Z,22.62
2022-10-27T13:41:50.040Z,22.38
2022-10-27T13:44:27.149Z,22.28
2022-10-27T13:47:10.787Z,22.22
2022-10-27T13:49:40.949Z,22.17
2022-10-27T13:52:16.933Z,22.13
2022-10-27T13:55:14.392Z,22.10
2022-10-27T13:58:07.043Z,22.12
2022-10-27T14:00:47.057Z,22.10
2022-10-27T14:06:14.470Z,21.88
2022-10-27T14:08:51.807Z,21.75
2022-10-27T14:11:30.248Z,21.59
2022-10-27T14:14:01.778Z,21.44
2022-10-27T14:16:38.134Z,21.30
2022-10-27T14:19:06.794Z,21.12
2022-10-27T14:21:36.788Z,20.88
2022-10-27T14:24:06.064Z,20.64
2022-10-27T14:26:37.185Z,20.38
2022-10-27T14:29:04.941Z,20.10
2022-10-27T14:31:33.556Z,19.88
2022-10-27T14:34:26.071Z,19.61
2022-10-27T14:36:57.280Z,19.32
2022-10-27T14:39:31.456Z,19.07
2022-10-27T14:42:02.804Z,18.87
2022-10-27T14:44:32.172Z,18.67
2022-10-27T14:47:01.174Z,18.47
2022-10-27T14:49:32.356Z,18.28
2022-10-27T14:52:03.880Z,18.10
2022-10-27T14:54:31.079Z,17.95
2022-10-27T14:57:24.399Z,17.80
2022-10-27T14:59:51.727Z,17.64
2022-10-27T15:02:18.980Z,17.47
2022-10-27T15:04:45.979Z,17.31
2022-10-27T15:07:15.406Z,17.09
2022-10-27T15:09:50.102Z,16.86
2022-10-27T15:12:25.097Z,16.62
2022-10-27T15:14:54.566Z,16.38
2022-10-27T15:17:28.109Z,16.15
2022-10-27T15:19:57.331Z,15.92
2022-10-27T15:22:24.358Z,15.72
2022-10-27T15:24:51.350Z,15.54
2022-10-27T15:27:19.272Z,15.37
2022-10-27T15:29:48.484Z,15.80
2022-10-27T15:32:23.327Z,16.34
2022-10-27T15:34:50.466Z,16.37
2022-10-27T15:37:23.926Z,16.15
2022-10-27T15:39:51.924Z,15.87
2022-10-27T15:42:20.356Z,15.62
2022-10-27T15:44:48.103Z,15.40
2022-10-27T15:47:42.049Z,15.18
2022-10-27T15:50:25.752Z,14.95
2022-10-27T15:53:05.332Z,14.74
2022-10-27T15:55:32.582Z,14.55
2022-10-27T15:57:59.705Z,15.05
2022-10-27T16:00:27.595Z,15.64
2022-10-27T16:02:58.412Z,15.64
2022-10-27T16:05:32.221Z,15.42
2022-10-27T16:08:00.101Z,15.12
2022-10-27T16:10:27.438Z,14.83
2022-10-27T16:12:54.792Z,14.57
2022-10-27T16:15:23.772Z,14.33
2022-10-27T16:17:56.535Z,14.13
2022-10-27T16:20:24.604Z,13.96
2022-10-27T16:22:52.079Z,13.77
2022-10-27T16:25:21.223Z,13.59
2022-10-27T16:27:48.138Z,14.11
2022-10-27T16:30:17.381Z,14.71
2022-10-27T16:32:44.457Z,14.79
2022-10-27T16:35:15.264Z,14.61
2022-10-27T16:37:44.017Z,14.39
2022-10-27T16:40:17.490Z,14.15
2022-10-27T16:42:50.594Z,13.88
2022-10-27T16:45:20.408Z,13.66
2022-10-27T16:47:49.427Z,13.45
2022-10-27T16:50:16.685Z,13.24
2022-10-27T16:52:43.851Z,13.74
2022-10-27T16:55:13.775Z,14.33
2022-10-27T16:57:47.209Z,14.38
2022-10-27T17:00:16.931Z,14.17
2022-10-27T17:02:44.026Z,13.89
2022-10-27T17:05:11.175Z,13.59
2022-10-27T17:07:39.271Z,13.31
2022-10-27T17:10:07.140Z,13.06
2022-10-27T17:12:35.376Z,13.43
2022-10-27T17:15:02.380Z,13.90
2022-10-27T17:17:29.441Z,13.92
2022-10-27T17:19:56.550Z,13.70
2022-10-27T17:22:23.530Z,13.40
2022-10-27T17:24:50.899Z,13.14
2022-10-27T17:27:17.825Z,12.90
2022-10-27T17:29:47.102Z,12.63
2022-10-27T17:32:14.483Z,13.02
2022-10-27T17:34:43.511Z,13.54
2022-10-27T17:37:11.981Z,13.53
2022-10-27T17:39:39.031Z,13.30
2022-10-27T17:42:07.348Z,13.04
2022-10-27T17:44:34.513Z,12.75
2022-10-27T17:47:01.724Z,12.49
2022-10-27T17:49:28.921Z,12.23
2022-10-27T17:51:55.968Z,12.61
2022-10-27T17:54:24.755Z,13.09
2022-10-27T17:56:52.013Z,13.08
2022-10-27T17:59:20.254Z,12.84
2022-10-27T18:01:49.965Z,12.55
2022-10-27T18:04:17.558Z,12.26
2022-10-27T18:06:44.677Z,12.00
2022-10-27T18:09:13.728Z,11.75
2022-10-27T18:11:41.933Z,12.19
2022-10-27T18:14:13.329Z,12.77
2022-10-27T18:16:41.021Z,12.79
2022-10-27T18:19:11.369Z,12.56
2022-10-27T18:21:44.401Z,12.27
2022-10-27T18:24:12.496Z,12.00
2022-10-27T18:26:42.053Z,11.76
2022-10-27T18:29:10.417Z,11.49
2022-10-27T18:31:38.809Z,11.90
2022-10-27T18:34:10.181Z,12.43
2022-10-27T18:36:37.827Z,12.46
2022-10-27T18:39:05.589Z,12.24
2022-10-27T18:41:34.195Z,11.94
2022-10-27T18:44:01.289Z,11.65
2022-10-27T18:46:28.885Z,11.39
2022-10-27T18:48:59.067Z,11.15
2022-10-27T18:51:29.180Z,11.60
2022-10-27T18:53:57.551Z,12.12
2022-10-27T18:56:54.311Z,11.97
2022-10-27T18:59:21.289Z,11.81
2022-10-27T19:01:48.480Z,11.54
2022-10-27T19:04:16.171Z,11.27
2022-10-27T19:06:43.855Z,11.03
2022-10-27T19:09:11.342Z,10.81
2022-10-27T19:11:38.412Z,11.29
2022-10-27T19:14:06.540Z,11.86
2022-10-27T19:16:34.773Z,11.92
2022-10-27T19:19:02.819Z,11.72
2022-10-27T19:21:30.094Z,11.45
2022-10-27T19:24:02.215Z,11.14
2022-10-27T19:26:31.232Z,10.85
2022-10-27T19:28:58.454Z,10.61
2022-10-27T19:31:27.838Z,11.07
2022-10-27T19:33:55.358Z,11.62
2022-10-27T19:36:33.258Z,11.65
2022-10-27T19:39:01.708Z,11.42
2022-10-27T19:41:30.741Z,11.16
2022-10-27T19:43:57.873Z,10.88
2022-10-27T19:46:25.819Z,10.62
2022-10-27T19:48:57.583Z,11.01
2022-10-27T19:51:26.604Z,11.53
2022-10-27T19:53:54.289Z,11.54
2022-10-27T19:56:21.824Z,11.31
2022-10-27T19:58:53.256Z,11.05
2022-10-27T20:01:40.394Z,10.77
2022-10-27T20:04:11.086Z,10.49
2022-10-27T20:06:48.167Z,11.02
2022-10-27T20:09:16.361Z,11.54
2022-10-27T20:11:44.766Z,11.50
2022-10-27T20:14:12.414Z,11.24
2022-10-27T20:16:42.349Z,10.94
2022-10-27T20:19:14.665Z,10.65
2022-10-27T20:21:41.863Z,10.38
2022-10-27T20:24:12.778Z,10.15
2022-10-27T20:26:44.434Z,10.61
2022-10-27T20:29:12.575Z,11.15
2022-10-27T20:31:40.220Z,11.15
2022-10-27T20:34:10.532Z,10.92
2022-10-27T20:36:40.407Z,10.64
2022-10-27T20:39:08.159Z,10.35
2022-10-27T20:41:35.215Z,10.07
2022-10-27T20:44:02.717Z,10.46
2022-10-27T20:46:31.835Z,10.95
2022-10-27T20:48:59.290Z,10.90
2022-10-27T20:51:28.934Z,10.57
2022-10-27T20:53:56.034Z,10.22
2022-10-27T20:56:28.104Z,9.89
2022-10-27T20:58:55.365Z,9.61
2022-10-27T21:01:29.458Z,10.03
2022-10-27T21:04:00.384Z,10.54
2022-10-27T21:06:27.797Z,10.53
2022-10-27T21:08:56.239Z,10.26
2022-10-27T21:11:26.881Z,9.91
2022-10-27T21:13:57.209Z,9.54
2022-10-27T21:16:24.332Z,9.20
2022-10-27T21:18:52.867Z,9.59
2022-10-27T21:21:20.738Z,10.11
2022-10-27T21:23:48.358Z,10.13
2022-10-27T21:26:15.434Z,9.95
2022-10-27T21:28:42.902Z,9.72
2022-10-27T21:31:12.685Z,9.50
2022-10-27T21:33:40.420Z,9.31
2022-10-27T21:36:07.978Z,9.77
2022-10-27T21:38:42.482Z,10.29
2022-10-27T21:41:09.594Z,10.30
2022-10-27T21:43:38.334Z,10.10
2022-10-27T21:46:05.504Z,9.89
2022-10-27T21:48:32.692Z,9.65
2022-10-27T21:50:59.769Z,9.44
2022-10-27T21:53:26.961Z,9.90
2022-10-27T21:56:04.669Z,10.45
2022-10-27T21:58:32.490Z,10.46
2022-10-27T22:01:10.587Z,10.22
2022-10-27T22:03:38.268Z,9.94
2022-10-27T22:06:05.719Z,9.67
2022-10-27T22:08:34.686Z,9.42
2022-10-27T22:11:16.537Z,9.93
2022-10-27T22:13:45.575Z,10.50
2022-10-27T22:16:14.790Z,10.44
2022-10-27T22:18:42.225Z,10.12
2022-10-27T22:21:11.697Z,9.77
2022-10-27T22:23:41.401Z,9.46
2022-10-27T22:26:10.932Z,9.17
2022-10-27T22:28:39.231Z,9.59
2022-10-27T22:31:10.831Z,10.10
2022-10-27T22:33:41.893Z,10.10
2022-10-27T22:36:14.166Z,9.87
2022-10-27T22:38:41.318Z,9.57
2022-10-27T22:41:15.802Z,9.26
2022-10-27T22:43:43.267Z,8.99
2022-10-27T22:46:14.836Z,9.50
2022-10-27T22:48:41.764Z,10.08
2022-10-27T22:51:10.994Z,10.08
2022-10-27T22:53:39.530Z,9.89
2022-10-27T22:56:11.803Z,9.63
2022-10-27T22:58:40.095Z,9.36
2022-10-27T23:01:13.887Z,9.10
2022-10-27T23:03:41.275Z,9.55
2022-10-27T23:06:10.869Z,10.06
2022-10-27T23:08:38.030Z,10.09
2022-10-27T23:11:06.555Z,9.87
2022-10-27T23:13:35.570Z,9.56
2022-10-27T23:16:07.381Z,9.21
2022-10-27T23:18:37.342Z,8.89
2022-10-27T23:21:08.499Z,9.31
2022-10-27T23:23:35.651Z,9.86
2022-10-27T23:26:02.692Z,9.86
2022-10-27T23:28:30.102Z,9.61
2022-10-27T23:31:01.092Z,9.31
2022-10-27T23:33:27.923Z,9.02
2022-10-27T23:36:00.805Z,8.75
2022-10-27T23:38:28.407Z,8.51
2022-10-27T23:40:56.897Z,8.99
2022-10-27T23:43:24.091Z,9.55
2022-10-27T23:45:57.705Z,9.57
2022-10-27T23:48:24.746Z,9.33
2022-10-27T23:50:51.802Z,9.07
2022-10-27T23:53:19.269Z,8.82
2022-10-27T23:55:53.405Z,8.57
2022-10-27T23:58:20.494Z,9.08
